Time;durP1;ratioP1;P1;durP2;ratioP2;P2;SDS_P1;SDS_P2;PMS_P1;PMS_P2;Temp;Humidity;BMP_temperature;BMP_pressure;BME280_temperature;BME280_humidity;BME280_pressure;Samples;Min_cycle;Max_cycle;Signal;HPM_P1;HPM_P2
2022/04/16 00:00:54;;;;;;;13.73;6.33;;;7.10;99.90;;;;;;4231714;28;20940;-77
2022/04/16 00:02:57;;;;;;;11.77;6.17;;;7.10;99.90;;;;;;4225954;28;20526;-79
2022/04/16 00:05:00;;;;;;;10.50;5.60;;;7.10;99.90;;;;;;4218505;28;20481;-77
2022/04/16 00:07:02;;;;;;;10.27;5.63;;;7.00;99.90;;;;;;4230222;28;20468;-77
2022/04/16 00:09:04;;;;;;;13.23;5.80;;;7.00;99.90;;;;;;4239458;27;20536;-77
2022/04/16 00:11:06;;;;;;;9.53;5.40;;;7.00;99.90;;;;;;4230441;28;20446;-77
2022/04/16 00:13:08;;;;;;;10.37;5.00;;;7.00;99.90;;;;;;4223733;28;20472;-77
2022/04/16 00:15:11;;;;;;;11.50;5.10;;;7.00;99.90;;;;;;4219131;28;20490;-77
2022/04/16 00:17:13;;;;;;;13.00;5.13;;;6.90;99.90;;;;;;4218856;28;20469;-78
2022/04/16 00:19:15;;;;;;;9.13;4.90;;;6.90;99.90;;;;;;4222694;28;20464;-77
2022/04/16 00:21:18;;;;;;;7.43;4.17;;;6.90;99.90;;;;;;4215105;28;20939;-77
2022/04/16 00:23:20;;;;;;;10.70;4.67;;;6.90;99.90;;;;;;4221991;28;20467;-77
2022/04/16 00:25:23;;;;;;;11.80;4.37;;;6.90;99.90;;;;;;4230750;28;20980;-77
2022/04/16 00:27:24;;;;;;;9.20;5.00;;;6.80;99.90;;;;;;4229433;28;20552;-77
2022/04/16 00:29:26;;;;;;;9.63;4.53;;;6.80;99.90;;;;;;4230241;28;20469;-77
2022/04/16 00:31:29;;;;;;;8.93;4.30;;;6.80;99.90;;;;;;4217611;28;20844;-77
2022/04/16 00:33:33;;;;;;;8.83;4.27;;;6.80;99.90;;;;;;4222763;28;20457;-77
2022/04/16 00:35:36;;;;;;;9.20;4.13;;;6.80;99.90;;;;;;4229308;28;20491;-78
2022/04/16 00:37:39;;;;;;;7.23;4.03;;;6.80;99.90;;;;;;4225390;28;20463;-78
2022/04/16 00:39:40;;;;;;;12.23;4.43;;;6.80;99.90;;;;;;4220614;28;20478;-77
2022/04/16 00:41:45;;;;;;;6.87;3.97;;;6.80;99.90;;;;;;4225311;28;20457;-77
2022/04/16 00:43:47;;;;;;;6.97;4.10;;;6.70;99.90;;;;;;4224142;28;20456;-77
2022/04/16 00:45:49;;;;;;;6.63;3.53;;;6.70;99.90;;;;;;4229826;28;20553;-78
2022/04/16 00:47:51;;;;;;;8.53;4.13;;;6.70;99.90;;;;;;4224958;28;20452;-77
2022/04/16 00:49:52;;;;;;;7.87;3.90;;;6.70;99.90;;;;;;4217127;28;20472;-77
2022/04/16 00:51:54;;;;;;;7.83;4.03;;;6.70;99.90;;;;;;4223769;28;20487;-77
2022/04/16 00:53:57;;;;;;;7.77;3.70;;;6.70;99.90;;;;;;4224151;28;20490;-77
2022/04/16 00:56:00;;;;;;;8.50;4.13;;;6.70;99.90;;;;;;4229484;28;20511;-77
2022/04/16 00:58:01;;;;;;;9.60;4.10;;;6.70;99.90;;;;;;4223740;28;20464;-77
2022/04/16 01:00:05;;;;;;;8.77;4.10;;;6.70;99.90;;;;;;4218610;28;20498;-77
2022/04/16 01:02:09;;;;;;;7.67;4.23;;;6.70;99.90;;;;;;4228241;28;20853;-77
2022/04/16 01:04:11;;;;;;;7.10;3.87;;;6.70;99.90;;;;;;4227072;28;20607;-78
2022/04/16 01:06:15;;;;;;;13.07;4.17;;;6.70;99.90;;;;;;4225710;28;20497;-78
2022/04/16 01:08:19;;;;;;;8.17;4.50;;;6.70;99.90;;;;;;4230635;28;20452;-77
2022/04/16 01:10:25;;;;;;;8.70;4.47;;;6.70;99.90;;;;;;4230118;28;20456;-77
2022/04/16 01:12:27;;;;;;;12.17;4.70;;;6.60;99.90;;;;;;4229886;28;20878;-77
2022/04/16 01:14:29;;;;;;;10.00;4.80;;;6.60;99.90;;;;;;4228506;28;20619;-78
2022/04/16 01:16:32;;;;;;;8.80;4.63;;;6.60;99.90;;;;;;4227901;28;20953;-77
2022/04/16 01:18:35;;;;;;;9.33;5.20;;;6.60;99.90;;;;;;4230473;28;20552;-77
2022/04/16 01:20:38;;;;;;;7.37;4.07;;;6.60;99.90;;;;;;4226644;28;20476;-78
2022/04/16 01:22:41;;;;;;;10.53;4.40;;;6.60;99.90;;;;;;4227682;28;20459;-77
2022/04/16 01:24:48;;;;;;;10.37;4.67;;;6.60;99.90;;;;;;4226423;28;20947;-78
2022/04/16 01:26:51;;;;;;;7.47;4.00;;;6.60;99.90;;;;;;4228939;28;20467;-78
2022/04/16 01:28:53;;;;;;;5.70;3.80;;;6.50;99.90;;;;;;4216202;28;20465;-78
2022/04/16 01:30:54;;;;;;;7.20;3.90;;;6.50;99.90;;;;;;4223189;28;20720;-77
2022/04/16 01:32:56;;;;;;;7.57;4.23;;;6.50;99.90;;;;;;4226928;28;20546;-77
2022/04/16 01:34:58;;;;;;;7.30;3.60;;;6.50;99.90;;;;;;4223452;28;20989;-78
2022/04/16 01:37:02;;;;;;;8.47;3.90;;;6.50;99.90;;;;;;4219202;28;20463;-77
2022/04/16 01:39:07;;;;;;;5.17;2.90;;;6.40;99.90;;;;;;4229113;28;20832;-77
2022/04/16 01:41:09;;;;;;;6.50;3.23;;;6.40;99.90;;;;;;4229901;28;20491;-77
2022/04/16 01:43:10;;;;;;;5.80;3.27;;;6.30;99.90;;;;;;4228955;28;20467;-78
2022/04/16 01:45:17;;;;;;;6.27;3.23;;;6.30;99.90;;;;;;4229656;28;20983;-77
2022/04/16 01:47:19;;;;;;;5.50;2.80;;;6.30;99.90;;;;;;4226136;28;20536;-77
2022/04/16 01:49:21;;;;;;;6.07;2.93;;;6.20;99.90;;;;;;4229862;28;20466;-77
2022/04/16 01:51:24;;;;;;;4.57;2.70;;;6.10;99.90;;;;;;4230273;28;20530;-77
2022/04/16 01:53:26;;;;;;;4.63;2.70;;;6.20;99.90;;;;;;4230720;28;20443;-78
2022/04/16 01:55:32;;;;;;;5.83;3.20;;;6.10;99.90;;;;;;4213605;28;20503;-77
2022/04/16 01:57:34;;;;;;;4.67;2.37;;;6.00;99.90;;;;;;4227049;28;20466;-77
2022/04/16 01:59:36;;;;;;;7.23;3.13;;;6.00;99.90;;;;;;4229751;28;20485;-77
2022/04/16 02:01:38;;;;;;;5.73;2.70;;;5.90;99.90;;;;;;4226535;28;20482;-77
2022/04/16 02:03:39;;;;;;;4.83;2.30;;;5.90;99.90;;;;;;4230426;28;20942;-77
2022/04/16 02:05:41;;;;;;;4.53;2.60;;;5.80;99.90;;;;;;4245714;22;21079;-78
2022/04/16 02:07:43;;;;;;;4.23;2.43;;;5.80;99.90;;;;;;4212974;28;20862;-78
2022/04/16 02:09:44;;;;;;;5.50;2.63;;;5.70;99.90;;;;;;4213393;28;20471;-78
2022/04/16 02:11:47;;;;;;;3.67;2.20;;;5.70;99.90;;;;;;4212136;28;20471;-78
2022/04/16 02:13:49;;;;;;;5.60;2.37;;;5.60;99.90;;;;;;4204883;28;20474;-77
2022/04/16 02:15:51;;;;;;;5.43;2.40;;;5.60;99.90;;;;;;4210434;28;21092;-78
2022/04/16 02:17:56;;;;;;;5.33;2.10;;;5.50;99.90;;;;;;4212307;28;20471;-77
2022/04/16 02:19:58;;;;;;;5.90;2.70;;;5.50;99.90;;;;;;4213405;28;20494;-77
2022/04/16 02:21:59;;;;;;;6.37;2.60;;;5.40;99.90;;;;;;4205495;28;20472;-78
2022/04/16 02:24:01;;;;;;;4.17;2.37;;;5.30;99.90;;;;;;4198660;28;20476;-77
2022/04/16 02:26:09;;;;;;;5.17;2.53;;;5.30;99.90;;;;;;4212177;28;20487;-78
2022/04/16 02:28:13;;;;;;;3.07;2.03;;;5.20;99.90;;;;;;4209127;28;20485;-78
2022/04/16 02:30:16;;;;;;;6.33;2.33;;;5.20;99.90;;;;;;4204466;28;20861;-79
2022/04/16 02:32:18;;;;;;;5.10;2.27;;;5.20;99.90;;;;;;4206259;28;20455;-77
2022/04/16 02:34:20;;;;;;;6.23;2.70;;;5.10;99.90;;;;;;4205998;28;20567;-78
2022/04/16 02:36:25;;;;;;;9.03;2.50;;;5.10;99.90;;;;;;4210424;28;20518;-78
2022/04/16 02:38:27;;;;;;;4.53;2.20;;;5.30;99.90;;;;;;4200103;28;20504;-77
2022/04/16 02:40:28;;;;;;;4.70;2.47;;;5.10;99.90;;;;;;4216753;28;20512;-78
2022/04/16 02:42:30;;;;;;;5.90;2.47;;;5.10;99.90;;;;;;4208834;28;20510;-77
2022/04/16 02:47:08;;;;;;;5.87;2.10;;;4.90;99.90;;;;;;4178283;28;20476;-77
2022/04/16 02:49:10;;;;;;;6.17;2.47;;;4.90;99.90;;;;;;4202811;28;20474;-79
2022/04/16 02:51:12;;;;;;;6.40;2.50;;;4.80;99.90;;;;;;4216789;28;20504;-79
2022/04/16 02:53:13;;;;;;;5.30;2.53;;;4.80;99.90;;;;;;4202982;28;20949;-78
2022/04/16 02:55:16;;;;;;;4.70;2.50;;;4.80;99.90;;;;;;4207742;28;21134;-79
2022/04/16 02:57:17;;;;;;;9.43;2.60;;;4.70;99.90;;;;;;4208052;28;20943;-77
2022/04/16 02:59:19;;;;;;;5.20;2.80;;;4.60;99.90;;;;;;4215624;28;20470;-80
2022/04/16 03:01:22;;;;;;;4.67;2.33;;;4.60;99.90;;;;;;4207237;28;20456;-77
2022/04/16 03:03:24;;;;;;;4.73;2.30;;;4.50;99.90;;;;;;4212972;28;20553;-77
2022/04/16 03:05:26;;;;;;;4.10;2.50;;;4.50;99.90;;;;;;4215415;28;20471;-78
2022/04/16 03:07:28;;;;;;;5.77;2.53;;;4.40;99.90;;;;;;4203130;28;20467;-80
2022/04/16 03:09:29;;;;;;;5.90;2.40;;;4.40;99.90;;;;;;4201538;28;20440;-80
2022/04/16 03:11:32;;;;;;;3.60;2.50;;;4.40;99.90;;;;;;4213317;28;20456;-78
2022/04/16 03:13:34;;;;;;;5.67;2.33;;;4.30;99.90;;;;;;4212281;28;20474;-80
2022/04/16 03:17:55;;;;;;;3.50;2.13;;;4.30;99.90;;;;;;4209818;28;20431;-80
2022/04/16 03:19:57;;;;;;;5.80;2.20;;;4.30;99.90;;;;;;4212752;28;20467;-77
2022/04/16 03:21:59;;;;;;;3.47;2.07;;;4.30;99.90;;;;;;4199750;28;20531;-77
2022/04/16 03:24:00;;;;;;;4.80;2.23;;;4.30;99.90;;;;;;4199178;28;20452;-77
2022/04/16 03:26:02;;;;;;;4.17;2.27;;;4.30;99.90;;;;;;4212003;28;20487;-81
2022/04/16 03:28:04;;;;;;;4.87;2.30;;;4.20;99.90;;;;;;4210482;28;20468;-78
2022/04/16 03:30:09;;;;;;;5.57;2.63;;;4.20;99.90;;;;;;4206112;28;20475;-79
2022/04/16 03:32:11;;;;;;;4.80;2.10;;;4.20;99.90;;;;;;4215813;28;20459;-77
2022/04/16 03:34:14;;;;;;;3.97;2.10;;;4.20;99.90;;;;;;4208749;28;20486;-78
2022/04/16 03:36:19;;;;;;;5.90;2.10;;;4.10;99.90;;;;;;4203333;28;20487;-77
2022/04/16 03:38:20;;;;;;;4.67;2.20;;;4.10;99.90;;;;;;4201497;28;20870;-80
2022/04/16 03:40:24;;;;;;;5.73;2.37;;;4.00;99.90;;;;;;4211044;28;20972;-77
2022/04/16 03:42:26;;;;;;;5.17;2.10;;;4.00;99.90;;;;;;4213355;28;20512;-77
2022/04/16 03:44:27;;;;;;;3.90;2.43;;;3.90;99.90;;;;;;4208201;28;20452;-77
2022/04/16 03:46:29;;;;;;;4.67;2.10;;;3.90;99.90;;;;;;4207503;28;20524;-77
2022/04/16 03:48:31;;;;;;;6.20;2.23;;;3.80;99.90;;;;;;4200129;28;20502;-77
2022/04/16 03:50:35;;;;;;;4.30;2.03;;;3.80;99.90;;;;;;4212194;28;20761;-77
2022/04/16 03:52:40;;;;;;;3.63;2.23;;;3.80;99.90;;;;;;4209117;28;20443;-77
2022/04/16 04:01:39;;;;;;;2.90;1.93;;;3.60;99.90;;;;;;4214234;28;20449;-77
2022/04/16 04:03:41;;;;;;;3.40;2.00;;;3.50;99.90;;;;;;4209712;28;20951;-77
2022/04/16 04:05:45;;;;;;;6.43;2.13;;;3.50;99.90;;;;;;4213574;28;20487;-77
2022/04/16 04:07:47;;;;;;;5.37;2.50;;;3.50;99.90;;;;;;4210457;28;20949;-77
2022/04/16 04:09:48;;;;;;;7.77;2.37;;;3.50;99.90;;;;;;4215292;28;20443;-77
2022/04/16 04:11:50;;;;;;;6.40;2.27;;;3.50;99.90;;;;;;4215092;28;20501;-77
2022/04/16 04:13:54;;;;;;;3.43;1.93;;;3.50;99.90;;;;;;4200261;28;20554;-77
2022/04/16 04:15:56;;;;;;;6.20;2.33;;;3.50;99.90;;;;;;4209945;28;20494;-77
2022/04/16 04:17:58;;;;;;;7.80;2.70;;;3.50;99.90;;;;;;4211851;28;20496;-78
2022/04/16 04:20:00;;;;;;;3.63;2.03;;;3.60;99.90;;;;;;4214074;28;20462;-77
2022/04/16 04:22:03;;;;;;;7.07;2.87;;;3.60;99.90;;;;;;4209914;28;20455;-78
2022/04/16 04:24:05;;;;;;;5.50;2.10;;;3.60;99.90;;;;;;4198322;28;20451;-77
2022/04/16 04:26:08;;;;;;;4.73;2.13;;;3.60;99.90;;;;;;4199517;28;20496;-77
2022/04/16 04:28:10;;;;;;;4.27;2.07;;;3.60;99.90;;;;;;4198394;28;20937;-77
2022/04/16 04:30:12;;;;;;;9.33;2.43;;;3.60;99.90;;;;;;4205762;28;20498;-78
2022/04/16 04:32:14;;;;;;;3.90;2.23;;;3.60;99.90;;;;;;4213811;28;21013;-79
2022/04/16 04:34:16;;;;;;;4.87;2.03;;;3.60;99.90;;;;;;4214299;28;20459;-77
2022/04/16 04:36:17;;;;;;;2.97;1.90;;;3.60;99.90;;;;;;4209118;28;20500;-78
2022/04/16 04:38:20;;;;;;;2.77;1.80;;;3.60;99.90;;;;;;4214832;28;20907;-80
2022/04/16 04:40:22;;;;;;;5.60;2.30;;;3.60;99.90;;;;;;4212854;28;20870;-77
2022/04/16 04:42:24;;;;;;;4.57;2.50;;;3.60;99.90;;;;;;4212332;28;20454;-78
2022/04/16 04:44:26;;;;;;;5.57;2.50;;;3.60;99.90;;;;;;4206449;28;20443;-77
2022/04/16 04:46:27;;;;;;;6.20;2.40;;;3.60;99.90;;;;;;4206588;28;20471;-77
2022/04/16 04:48:29;;;;;;;6.93;2.87;;;3.60;99.90;;;;;;4209498;28;20474;-78
2022/04/16 04:50:31;;;;;;;7.57;2.47;;;3.60;99.90;;;;;;4199421;28;20467;-78
2022/04/16 04:52:32;;;;;;;3.53;2.40;;;3.70;99.90;;;;;;4198193;28;20459;-77
2022/04/16 04:54:35;;;;;;;7.07;2.43;;;3.70;99.90;;;;;;4199067;28;20452;-77
2022/04/16 04:56:37;;;;;;;4.30;2.37;;;3.70;99.90;;;;;;4208841;28;20499;-78
2022/04/16 04:58:39;;;;;;;6.63;2.23;;;3.70;99.90;;;;;;4197514;28;20584;-78
2022/04/16 05:00:41;;;;;;;7.73;2.90;;;3.70;99.90;;;;;;4211216;28;20475;-79
2022/04/16 05:02:44;;;;;;;4.97;2.40;;;3.70;99.90;;;;;;4213937;28;20520;-78
2022/04/16 05:04:46;;;;;;;5.70;2.63;;;3.90;99.90;;;;;;4198832;28;21011;-78
2022/04/16 05:06:47;;;;;;;4.63;2.53;;;3.80;99.90;;;;;;4204189;28;20479;-77
2022/04/16 05:08:49;;;;;;;4.97;2.47;;;3.80;99.90;;;;;;4197903;28;20870;-78
2022/04/16 05:10:52;;;;;;;6.17;2.27;;;3.80;99.90;;;;;;4198786;28;20462;-80
2022/04/16 05:12:57;;;;;;;3.77;2.10;;;3.80;99.90;;;;;;4198955;28;20814;-77
2022/04/16 05:14:59;;;;;;;3.63;2.20;;;3.80;99.90;;;;;;4200371;28;20471;-78
2022/04/16 05:17:01;;;;;;;5.13;2.40;;;3.80;99.90;;;;;;4207419;28;20905;-78
2022/04/16 05:19:03;;;;;;;8.47;2.73;;;3.90;99.90;;;;;;4199318;28;20517;-78
2022/04/16 05:21:04;;;;;;;4.93;2.50;;;3.90;99.90;;;;;;4215325;28;21009;-78
2022/04/16 05:23:06;;;;;;;5.93;2.13;;;3.90;99.90;;;;;;4213375;28;20889;-78
2022/04/16 05:25:09;;;;;;;3.13;2.40;;;3.90;99.90;;;;;;4213939;28;20532;-77
2022/04/16 05:27:12;;;;;;;4.03;2.40;;;3.90;99.90;;;;;;4211057;28;20512;-78
2022/04/16 05:29:14;;;;;;;4.23;2.10;;;3.90;99.90;;;;;;4207729;28;20456;-78
2022/04/16 05:31:19;;;;;;;4.20;2.13;;;3.90;99.90;;;;;;4212014;28;20592;-78
2022/04/16 05:35:36;;;;;;;3.03;2.10;;;4.00;99.90;;;;;;4201927;28;20483;-78
2022/04/16 05:37:38;;;;;;;4.57;2.20;;;4.00;99.90;;;;;;4211905;28;20454;-78
2022/04/16 05:39:40;;;;;;;4.33;2.00;;;4.00;99.90;;;;;;4211257;28;20474;-78
2022/04/16 05:41:42;;;;;;;4.13;1.93;;;4.10;99.90;;;;;;4208616;28;20470;-78
2022/04/16 05:43:45;;;;;;;4.87;2.67;;;4.10;99.90;;;;;;4213798;28;20512;-78
2022/04/16 05:45:47;;;;;;;6.20;2.53;;;4.10;99.90;;;;;;4212346;28;20485;-78
2022/04/16 05:47:48;;;;;;;4.77;2.60;;;4.10;99.90;;;;;;4204357;28;20939;-78
2022/04/16 05:49:50;;;;;;;5.60;2.40;;;4.10;99.90;;;;;;4211746;28;20743;-78
2022/04/16 05:51:52;;;;;;;3.90;2.23;;;4.10;99.90;;;;;;4203976;28;20455;-77
2022/04/16 05:53:54;;;;;;;5.43;2.10;;;4.20;99.90;;;;;;4197024;28;20455;-78
2022/04/16 05:56:02;;;;;;;3.43;2.10;;;4.20;99.90;;;;;;4201919;28;20492;-78
2022/04/16 05:58:04;;;;;;;3.30;2.20;;;4.20;99.90;;;;;;4202730;28;20461;-78
2022/04/16 06:00:12;;;;;;;6.00;2.10;;;4.20;99.90;;;;;;4204219;28;20525;-78
2022/04/16 06:02:14;;;;;;;3.77;2.03;;;4.30;99.90;;;;;;4204396;28;20577;-78
2022/04/16 06:04:17;;;;;;;6.97;2.40;;;4.30;99.90;;;;;;4211226;28;20529;-78
2022/04/16 06:06:19;;;;;;;3.83;2.00;;;4.30;99.90;;;;;;4212291;28;20514;-79
2022/04/16 06:08:20;;;;;;;3.93;2.00;;;4.30;99.90;;;;;;4212900;28;20460;-79
2022/04/16 06:10:22;;;;;;;4.70;2.73;;;4.30;99.90;;;;;;4211070;28;20488;-78
2022/04/16 06:12:27;;;;;;;4.43;2.43;;;4.40;99.90;;;;;;4211779;28;20496;-78
2022/04/16 06:14:29;;;;;;;5.87;2.33;;;4.40;99.90;;;;;;4210969;28;20471;-79
2022/04/16 06:16:32;;;;;;;2.77;2.20;;;4.40;99.90;;;;;;4207457;28;20491;-78
2022/04/16 06:18:34;;;;;;;3.77;2.30;;;4.50;99.90;;;;;;4206948;28;20520;-78
2022/04/16 06:20:36;;;;;;;5.43;2.20;;;4.40;99.90;;;;;;4212003;28;20516;-78
2022/04/16 06:22:38;;;;;;;3.80;2.20;;;4.40;99.90;;;;;;4213647;28;20943;-78
2022/04/16 06:24:41;;;;;;;5.43;2.37;;;4.50;99.90;;;;;;4212507;28;20848;-78
2022/04/16 06:26:45;;;;;;;4.50;2.00;;;4.50;99.90;;;;;;4210566;28;20511;-79
2022/04/16 06:28:46;;;;;;;4.60;2.37;;;4.50;99.90;;;;;;4212410;28;20562;-79
2022/04/16 06:30:48;;;;;;;4.07;2.50;;;4.80;99.90;;;;;;4211500;28;20471;-80
2022/04/16 06:32:51;;;;;;;5.97;2.10;;;4.60;99.90;;;;;;4209262;28;20467;-79
2022/04/16 06:34:53;;;;;;;4.47;2.07;;;4.60;99.90;;;;;;4212753;28;20997;-78
2022/04/16 06:36:55;;;;;;;4.93;2.10;;;4.70;99.90;;;;;;4206628;28;20508;-78
2022/04/16 06:38:56;;;;;;;7.27;2.23;;;4.70;99.90;;;;;;4211920;28;20959;-78
2022/04/16 06:40:58;;;;;;;4.87;2.03;;;4.80;99.90;;;;;;4210339;28;20500;-78
2022/04/16 06:43:00;;;;;;;3.57;1.90;;;4.80;99.90;;;;;;4210455;28;20451;-79
2022/04/16 06:45:02;;;;;;;3.03;1.80;;;4.80;99.90;;;;;;4211534;28;20447;-78
2022/04/16 06:47:04;;;;;;;4.43;2.00;;;4.90;99.90;;;;;;4207127;28;20474;-78
2022/04/16 06:49:07;;;;;;;2.90;1.87;;;4.90;99.90;;;;;;4209096;28;20524;-78
2022/04/16 06:51:09;;;;;;;2.07;1.53;;;4.90;99.90;;;;;;4211940;28;20513;-79
2022/04/16 06:53:10;;;;;;;3.03;1.83;;;5.00;99.90;;;;;;4212450;28;20940;-79
2022/04/16 06:55:12;;;;;;;4.53;1.60;;;5.00;99.90;;;;;;4204633;28;20494;-79
2022/04/16 06:57:14;;;;;;;5.93;2.30;;;5.00;99.90;;;;;;4208074;28;21069;-79
2022/04/16 06:59:16;;;;;;;2.47;1.70;;;5.10;99.90;;;;;;4206686;28;20472;-80
2022/04/16 07:01:18;;;;;;;3.07;2.00;;;5.10;99.90;;;;;;4203674;28;20524;-78
2022/04/16 07:03:20;;;;;;;3.33;1.90;;;5.10;99.90;;;;;;4213712;28;20822;-78
2022/04/16 07:05:23;;;;;;;3.63;1.90;;;5.20;99.90;;;;;;4214399;28;20485;-78
2022/04/16 07:07:25;;;;;;;4.73;1.80;;;5.50;99.90;;;;;;4217878;28;20592;-80
2022/04/16 07:09:27;;;;;;;5.20;2.00;;;5.20;99.90;;;;;;4212842;28;20479;-80
2022/04/16 07:11:29;;;;;;;3.47;1.90;;;5.30;99.90;;;;;;4203356;28;20482;-79
2022/04/16 07:13:31;;;;;;;3.97;1.63;;;5.40;99.90;;;;;;4196741;28;20532;-80
2022/04/16 07:15:33;;;;;;;2.57;1.63;;;5.30;99.90;;;;;;4203565;28;20549;-80
2022/04/16 07:17:35;;;;;;;2.23;1.83;;;5.40;99.90;;;;;;4205840;28;20494;-80
2022/04/16 07:19:38;;;;;;;2.70;1.53;;;6.40;99.90;;;;;;4196910;28;20805;-80
2022/04/16 07:21:41;;;;;;;2.47;1.50;;;5.40;99.90;;;;;;4209489;28;20870;-79
2022/04/16 07:23:43;;;;;;;4.93;1.80;;;5.40;99.90;;;;;;4214774;28;20660;-78
2022/04/16 07:25:45;;;;;;;5.27;1.93;;;5.40;99.90;;;;;;4212574;28;20490;-79
2022/04/16 07:27:46;;;;;;;4.13;1.80;;;5.40;99.90;;;;;;4211511;28;20447;-79
2022/04/16 07:29:49;;;;;;;5.10;1.70;;;5.40;99.90;;;;;;4210772;28;20456;-79
2022/04/16 07:31:51;;;;;;;3.30;1.60;;;5.40;99.90;;;;;;4205840;28;20470;-79
2022/04/16 07:33:53;;;;;;;4.03;1.93;;;5.40;99.90;;;;;;4216407;28;20535;-79
2022/04/16 07:35:55;;;;;;;3.13;1.60;;;5.40;99.90;;;;;;4214925;28;20482;-79
2022/04/16 07:37:58;;;;;;;4.63;1.90;;;5.40;99.90;;;;;;4215346;28;20522;-79
2022/04/16 07:40:00;;;;;;;5.30;1.70;;;5.40;99.90;;;;;;4200663;28;20559;-79
2022/04/16 07:42:02;;;;;;;4.20;2.10;;;5.60;99.90;;;;;;4212629;28;21045;-79
2022/04/16 07:44:04;;;;;;;7.13;2.63;;;5.50;99.90;;;;;;4216069;28;20459;-79
2022/04/16 07:46:06;;;;;;;4.60;2.13;;;5.60;99.90;;;;;;4213888;28;20544;-79
2022/04/16 07:48:08;;;;;;;3.87;1.90;;;5.60;99.90;;;;;;4215349;28;20459;-79
2022/04/16 07:50:12;;;;;;;9.17;3.90;;;5.60;99.90;;;;;;4216410;28;20471;-79
2022/04/16 07:52:13;;;;;;;5.23;2.93;;;5.70;99.90;;;;;;4206680;28;20471;-79
2022/04/16 07:54:17;;;;;;;4.17;1.83;;;5.80;99.90;;;;;;4211632;28;20995;-79
2022/04/16 07:56:18;;;;;;;4.53;1.90;;;5.80;99.90;;;;;;4202126;28;20926;-79
2022/04/16 07:58:20;;;;;;;6.03;2.00;;;5.90;99.90;;;;;;4215717;28;20465;-79
2022/04/16 08:00:22;;;;;;;2.90;1.63;;;5.90;99.90;;;;;;4215131;28;20455;-79
2022/04/16 08:02:24;;;;;;;3.17;1.80;;;6.10;99.90;;;;;;4216294;28;20957;-79
2022/04/16 08:04:28;;;;;;;5.70;1.93;;;6.20;99.90;;;;;;4205478;28;20468;-79
2022/04/16 08:06:30;;;;;;;3.80;1.50;;;6.30;99.90;;;;;;4214883;28;20547;-80
2022/04/16 08:08:31;;;;;;;3.30;1.73;;;6.40;99.90;;;;;;4217820;28;20477;-80
2022/04/16 08:10:37;;;;;;;3.27;1.80;;;6.60;99.90;;;;;;4213379;28;20469;-80
2022/04/16 08:12:38;;;;;;;6.07;1.70;;;6.60;99.90;;;;;;4217402;28;20940;-79
2022/04/16 08:14:40;;;;;;;5.00;1.60;;;6.70;99.90;;;;;;4216035;28;21054;-80
2022/04/16 08:16:42;;;;;;;2.20;1.50;;;6.80;99.90;;;;;;4208173;28;20496;-80
2022/04/16 08:18:44;;;;;;;2.73;1.67;;;6.80;99.90;;;;;;4210733;28;20489;-80
2022/04/16 08:20:46;;;;;;;2.00;1.30;;;7.00;99.90;;;;;;4213840;28;20971;-80
2022/04/16 08:22:48;;;;;;;4.43;1.63;;;6.90;99.90;;;;;;4216973;28;20482;-80
2022/04/16 08:25:43;;;;;;;2.57;1.37;;;7.00;99.90;;;;;;4213929;28;20452;-80
2022/04/16 08:27:18;;;;;;;2.17;1.50;;;7.00;99.90;;;;;;4216219;28;20538;-79
2022/04/16 08:29:21;;;;;;;2.63;1.40;;;6.90;99.90;;;;;;4210951;28;20464;-80
2022/04/16 08:31:23;;;;;;;4.07;1.50;;;6.90;99.90;;;;;;4220730;28;20468;-79
2022/04/16 08:33:25;;;;;;;3.23;1.60;;;6.90;99.90;;;;;;4216853;28;20470;-80
2022/04/16 08:35:27;;;;;;;2.60;1.70;;;6.90;99.90;;;;;;4204852;28;20534;-80
2022/04/16 08:37:29;;;;;;;4.33;1.40;;;6.80;99.90;;;;;;4204096;28;20493;-80
2022/04/16 08:39:30;;;;;;;3.10;1.40;;;6.80;99.90;;;;;;4216992;28;20519;-80
2022/04/16 08:41:33;;;;;;;1.60;1.10;;;6.80;99.90;;;;;;4222593;28;20825;-80
2022/04/16 08:43:41;;;;;;;3.27;1.30;;;6.80;99.90;;;;;;4224251;28;20472;-79
2022/04/16 08:45:43;;;;;;;2.00;1.20;;;6.80;99.90;;;;;;4225076;28;20566;-80
2022/04/16 08:47:45;;;;;;;1.73;1.20;;;6.70;99.90;;;;;;4216788;28;20465;-80
2022/04/16 08:49:47;;;;;;;1.87;1.07;;;6.80;99.90;;;;;;4218174;28;20826;-79
2022/04/16 08:51:49;;;;;;;3.60;1.50;;;6.70;99.90;;;;;;4226050;28;20444;-79
2022/04/16 08:53:51;;;;;;;2.70;1.23;;;6.70;99.90;;;;;;4213976;28;20488;-80
2022/04/16 08:55:53;;;;;;;3.23;1.20;;;6.70;99.90;;;;;;4220208;28;20485;-79
2022/04/16 08:57:56;;;;;;;2.00;1.10;;;6.70;99.90;;;;;;4225060;28;20481;-79
2022/04/16 08:59:59;;;;;;;2.37;1.10;;;6.70;99.90;;;;;;4225593;28;20807;-79
2022/04/16 09:02:01;;;;;;;2.17;1.20;;;6.70;99.90;;;;;;4221040;28;20458;-79
2022/04/16 09:04:03;;;;;;;2.20;1.30;;;6.70;99.90;;;;;;4226937;28;20514;-79
2022/04/16 09:06:06;;;;;;;2.67;1.40;;;6.70;99.90;;;;;;4230278;28;20476;-79
2022/04/16 09:08:09;;;;;;;3.43;1.60;;;6.70;99.90;;;;;;4229705;28;20441;-79
2022/04/16 09:10:11;;;;;;;3.77;1.10;;;6.70;99.90;;;;;;4228736;28;20452;-79
2022/04/16 09:12:17;;;;;;;3.33;1.23;;;6.80;99.90;;;;;;4225037;28;20469;-79
2022/04/16 09:14:19;;;;;;;4.27;1.33;;;6.80;99.90;;;;;;4224683;28;21031;-80
2022/04/16 09:16:23;;;;;;;3.10;1.20;;;6.80;99.90;;;;;;4225251;28;20479;-79
2022/04/16 09:18:25;;;;;;;3.00;1.40;;;6.80;99.90;;;;;;4210936;28;20481;-80
2022/04/16 09:20:34;;;;;;;2.17;1.10;;;6.80;99.90;;;;;;4219603;28;20476;-80
2022/04/16 09:22:38;;;;;;;1.93;1.03;;;7.30;99.90;;;;;;4219746;28;20986;-80
2022/04/16 09:24:47;;;;;;;2.27;1.20;;;6.80;99.50;;;;;;4218797;28;20468;-80
2022/04/16 09:26:50;;;;;;;3.83;1.37;;;6.90;99.30;;;;;;4219475;28;20456;-80
2022/04/16 09:28:52;;;;;;;3.03;1.47;;;7.00;99.90;;;;;;4218806;28;20477;-80
2022/04/16 09:30:55;;;;;;;2.00;1.03;;;7.00;99.90;;;;;;4220572;28;20458;-80
2022/04/16 09:33:00;;;;;;;3.33;1.40;;;7.10;99.80;;;;;;4217923;28;20490;-80
2022/04/16 09:35:01;;;;;;;2.77;1.37;;;7.10;99.90;;;;;;4219185;28;20488;-80
2022/04/16 09:37:13;;;;;;;2.83;1.13;;;7.20;99.70;;;;;;4213026;28;20542;-80
2022/04/16 09:39:16;;;;;;;2.20;1.30;;;7.30;99.50;;;;;;4217743;28;20476;-80
2022/04/16 09:41:18;;;;;;;3.23;1.10;;;7.40;98.80;;;;;;4223071;28;20521;-80
2022/04/16 09:43:19;;;;;;;1.27;0.93;;;7.50;98.70;;;;;;4201803;28;20455;-80
2022/04/16 09:45:21;;;;;;;2.97;1.03;;;7.50;95.80;;;;;;4213456;28;20486;-80
2022/04/16 09:47:25;;;;;;;1.97;1.10;;;7.60;95.60;;;;;;4210084;28;20520;-80
2022/04/16 09:49:28;;;;;;;1.97;1.00;;;7.70;95.50;;;;;;4211535;28;20446;-80
2022/04/16 09:51:35;;;;;;;3.93;1.17;;;7.80;95.50;;;;;;4203142;28;20454;-80
2022/04/16 09:53:38;;;;;;;2.60;1.30;;;7.90;95.60;;;;;;4218281;28;20497;-80
2022/04/16 09:55:42;;;;;;;2.90;1.00;;;8.00;94.80;;;;;;4218873;28;20525;-80
2022/04/16 09:57:44;;;;;;;2.00;1.10;;;8.10;95.10;;;;;;4217797;28;20861;-80
2022/04/16 09:59:50;;;;;;;3.93;1.27;;;8.20;93.90;;;;;;4218993;28;20457;-80
2022/04/16 10:01:52;;;;;;;2.87;1.20;;;8.30;92.70;;;;;;4219346;28;20454;-80
2022/04/16 10:03:54;;;;;;;1.97;1.10;;;8.40;91.20;;;;;;4219744;28;20492;-80
2022/04/16 10:05:59;;;;;;;1.47;1.13;;;8.50;90.50;;;;;;4219148;28;20471;-80
2022/04/16 10:08:01;;;;;;;1.73;1.33;;;8.50;90.00;;;;;;4220016;28;20488;-79
2022/04/16 10:10:06;;;;;;;2.63;1.20;;;8.60;89.30;;;;;;4216672;28;20459;-80
2022/04/16 10:14:34;;;;;;;4.33;1.20;;;8.70;90.20;;;;;;4219534;28;20443;-80
2022/04/16 10:16:45;;;;;;;2.07;0.87;;;8.70;88.20;;;;;;4219046;28;20531;-80
2022/04/16 10:18:49;;;;;;;3.23;1.20;;;8.80;85.00;;;;;;4217205;28;20497;-80
2022/04/16 10:20:52;;;;;;;2.23;1.10;;;8.80;84.50;;;;;;4215367;28;20471;-80
2022/04/16 10:22:56;;;;;;;1.90;1.07;;;8.80;83.30;;;;;;4207451;28;20456;-80
2022/04/16 10:24:58;;;;;;;2.37;0.90;;;8.90;78.10;;;;;;4216537;28;20482;-80
2022/04/16 10:27:08;;;;;;;0.90;0.83;;;8.80;77.70;;;;;;4213285;28;20460;-80
2022/04/16 10:29:11;;;;;;;3.47;1.17;;;8.90;79.70;;;;;;4225230;28;20533;-80
2022/04/16 10:31:21;;;;;;;3.23;1.20;;;8.90;74.30;;;;;;4228415;28;20463;-80
2022/04/16 10:33:24;;;;;;;2.07;1.10;;;8.90;74.40;;;;;;4217601;28;20292;-80
2022/04/16 10:35:26;;;;;;;2.00;1.03;;;9.00;74.80;;;;;;4220084;28;20486;-80
2022/04/16 10:37:28;;;;;;;1.57;1.00;;;9.10;74.40;;;;;;4220298;28;20517;-80
2022/04/16 10:39:31;;;;;;;4.30;1.37;;;9.20;73.20;;;;;;4230602;28;20477;-80
2022/04/16 10:41:33;;;;;;;2.87;1.30;;;9.30;73.10;;;;;;4229691;28;20515;-80
2022/04/16 10:43:35;;;;;;;3.13;1.40;;;9.40;72.30;;;;;;4221011;28;20282;-80
2022/04/16 10:45:36;;;;;;;2.87;1.30;;;9.50;73.30;;;;;;4221514;28;20221;-80
2022/04/16 10:47:41;;;;;;;6.97;1.20;;;9.60;73.50;;;;;;4227130;28;20463;-80
2022/04/16 10:49:43;;;;;;;2.70;1.33;;;9.70;68.60;;;;;;4228243;28;20255;-80
2022/04/16 10:51:46;;;;;;;2.90;1.33;;;9.80;68.00;;;;;;4226326;28;20264;-80
2022/04/16 10:53:47;;;;;;;4.00;1.40;;;9.90;67.40;;;;;;4224616;28;20210;-79
2022/04/16 10:55:51;;;;;;;3.03;1.10;;;10.00;65.20;;;;;;4229165;28;20225;-80
2022/04/16 10:58:00;;;;;;;1.57;1.00;;;10.00;63.60;;;;;;4229513;28;20233;-80
2022/04/16 11:00:13;;;;;;;2.10;1.00;;;10.10;61.70;;;;;;4229627;28;20240;-80
2022/04/16 11:02:20;;;;;;;2.10;1.00;;;10.20;60.70;;;;;;4232402;28;20230;-80